createdAt,value
2019-03-26T00:06:12.859Z,5.09
2019-03-26T00:11:15.187Z,5.18
2019-03-26T00:13:43.600Z,5.24
2019-03-26T00:16:31.626Z,5.30
2019-03-26T00:19:00.035Z,5.36
2019-03-26T00:21:28.437Z,5.41
2019-03-26T00:26:31.230Z,5.40
2019-03-26T00:28:59.693Z,5.38
2019-03-26T00:31:28.082Z,5.36
2019-03-26T00:33:56.492Z,5.32
2019-03-26T00:36:24.898Z,5.33
2019-03-26T00:38:53.297Z,5.34
2019-03-26T00:41:21.685Z,5.33
2019-03-26T00:43:50.097Z,5.32
2019-03-26T00:46:18.498Z,5.37
2019-03-26T00:48:46.891Z,5.41
2019-03-26T00:53:48.902Z,5.40
2019-03-26T00:58:51.386Z,5.35
2019-03-26T01:01:19.802Z,5.32
2019-03-26T01:03:48.186Z,5.27
2019-03-26T01:06:16.584Z,5.25
2019-03-26T01:08:55.288Z,5.27
2019-03-26T01:11:23.677Z,5.29
2019-03-26T01:13:52.074Z,5.30
2019-03-26T01:16:20.518Z,5.30
2019-03-26T01:18:48.924Z,5.35
2019-03-26T01:21:17.312Z,5.39
2019-03-26T01:26:39.067Z,5.42
2019-03-26T01:29:07.490Z,5.44
2019-03-26T01:31:35.898Z,5.46
2019-03-26T01:34:04.298Z,5.48
2019-03-26T01:39:46.182Z,5.41
2019-03-26T01:47:23.602Z,5.35
2019-03-26T01:49:52.044Z,5.38
2019-03-26T01:52:20.420Z,5.37
2019-03-26T01:54:48.807Z,5.38
2019-03-26T01:57:17.252Z,5.35
2019-03-26T01:59:45.665Z,5.32
2019-03-26T02:02:33.291Z,5.32
2019-03-26T02:05:01.679Z,5.27
2019-03-26T02:07:30.072Z,5.20
2019-03-26T02:09:58.531Z,5.15
2019-03-26T02:12:26.931Z,5.12
2019-03-26T02:14:55.322Z,5.10
2019-03-26T02:19:57.748Z,5.13
2019-03-26T02:22:26.214Z,5.15
2019-03-26T02:24:54.601Z,5.21
2019-03-26T02:27:22.992Z,5.31
2019-03-26T02:32:25.071Z,5.45
2019-03-26T02:34:53.490Z,5.52
2019-03-26T02:37:21.898Z,5.53
2019-03-26T02:39:50.292Z,5.50
2019-03-26T02:42:18.688Z,5.45
2019-03-26T02:44:47.102Z,5.42
2019-03-26T02:47:15.489Z,5.39
2019-03-26T02:49:43.882Z,5.39
2019-03-26T02:52:31.635Z,5.38
2019-03-26T02:55:00.021Z,5.37
2019-03-26T02:57:28.419Z,5.37
2019-03-26T03:02:31.131Z,5.35
2019-03-26T03:07:53.184Z,5.30
2019-03-26T03:10:21.602Z,5.25
2019-03-26T03:12:49.999Z,5.25
2019-03-26T03:15:18.391Z,5.35
2019-03-26T03:17:46.862Z,5.39
2019-03-26T03:20:15.272Z,5.42
2019-03-26T03:22:43.650Z,5.41
2019-03-26T03:25:12.258Z,5.38
2019-03-26T03:27:40.647Z,5.32
2019-03-26T03:30:49.009Z,5.33
2019-03-26T03:33:17.396Z,5.37
2019-03-26T03:36:25.814Z,5.39
2019-03-26T03:38:54.198Z,5.37
2019-03-26T03:41:22.594Z,5.36
2019-03-26T03:47:05.154Z,5.33
2019-03-26T03:49:52.931Z,5.28
2019-03-26T03:53:01.212Z,5.29
2019-03-26T03:56:09.622Z,5.25
2019-03-26T03:59:17.946Z,5.18
2019-03-26T04:04:20.107Z,5.28
2019-03-26T04:09:22.968Z,5.30
2019-03-26T04:11:51.368Z,5.29
2019-03-26T04:14:19.874Z,5.28
2019-03-26T04:17:07.660Z,5.27
2019-03-26T04:19:36.069Z,5.28
2019-03-26T04:22:04.464Z,5.21
2019-03-26T04:27:06.440Z,5.29
2019-03-26T04:29:34.852Z,5.32
2019-03-26T04:34:37.279Z,5.27
2019-03-26T04:37:45.714Z,5.26
2019-03-26T04:40:33.430Z,5.29
2019-03-26T04:43:01.910Z,5.36
2019-03-26T04:45:49.617Z,5.36
2019-03-26T04:50:51.659Z,5.40
2019-03-26T04:53:20.059Z,5.44
2019-03-26T04:58:22.116Z,5.50
2019-03-26T05:00:50.518Z,5.53
2019-03-26T05:03:18.966Z,5.56
2019-03-26T05:06:01.966Z,5.54
2019-03-26T05:08:17.458Z,5.55
2019-03-26T05:13:20.105Z,5.59
2019-03-26T05:15:48.545Z,5.58
2019-03-26T05:18:16.938Z,5.57
2019-03-26T05:20:45.334Z,5.56
2019-03-26T05:23:26.216Z,5.56
2019-03-26T05:25:54.619Z,5.51
2019-03-26T05:28:23.027Z,5.43
2019-03-26T05:33:25.834Z,5.45
2019-03-26T05:35:54.257Z,5.44
2019-03-26T05:38:22.665Z,5.46
2019-03-26T05:40:51.082Z,5.49
2019-03-26T05:45:53.929Z,5.56
2019-03-26T05:50:56.287Z,5.45
2019-03-26T05:53:24.680Z,5.42
2019-03-26T05:55:53.111Z,5.45
2019-03-26T05:58:21.507Z,5.48
2019-03-26T06:00:49.907Z,5.55
2019-03-26T06:05:52.690Z,5.60
2019-03-26T06:10:54.684Z,5.60
2019-03-26T06:13:23.127Z,5.60
2019-03-26T06:16:10.722Z,5.59
2019-03-26T06:18:39.126Z,5.59
2019-03-26T06:21:07.529Z,5.56
2019-03-26T06:23:35.921Z,5.55
2019-03-26T06:31:33.167Z,5.56
2019-03-26T06:36:56.061Z,5.51
2019-03-26T06:39:24.467Z,5.55
2019-03-26T06:41:52.863Z,5.59
2019-03-26T06:44:21.283Z,5.57
2019-03-26T06:46:49.680Z,5.58
2019-03-26T06:49:18.087Z,5.59
2019-03-26T06:54:20.790Z,5.60
2019-03-26T06:56:49.203Z,5.63
2019-03-26T06:59:17.610Z,5.60
2019-03-26T07:02:26.034Z,5.48
2019-03-26T07:04:54.431Z,5.45
2019-03-26T07:07:31.526Z,5.44
2019-03-26T07:10:32.973Z,5.42
2019-03-26T07:13:20.567Z,5.40
2019-03-26T07:18:23.063Z,5.48
2019-03-26T07:23:25.461Z,5.45
2019-03-26T07:26:06.421Z,5.53
2019-03-26T07:28:34.898Z,5.58
2019-03-26T07:31:03.292Z,5.64
2019-03-26T07:36:26.073Z,5.66
2019-03-26T07:38:54.473Z,5.65
2019-03-26T07:41:22.917Z,5.70
2019-03-26T07:43:51.334Z,5.72
2019-03-26T07:46:19.730Z,5.77
2019-03-26T07:48:48.132Z,5.73
2019-03-26T07:51:16.587Z,5.68
2019-03-26T07:53:44.975Z,5.63
2019-03-26T07:56:13.369Z,5.59
2019-03-26T08:01:15.377Z,5.77
2019-03-26T08:03:43.784Z,5.84
2019-03-26T08:08:46.600Z,6.13
2019-03-26T08:13:49.435Z,6.42
2019-03-26T08:16:17.858Z,6.55
2019-03-26T08:18:46.203Z,6.45
2019-03-26T08:21:14.606Z,6.46
2019-03-26T08:26:17.071Z,6.61
2019-03-26T08:29:04.855Z,6.60
2019-03-26T08:31:33.242Z,6.59
2019-03-26T08:34:01.630Z,6.62
2019-03-26T08:36:30.050Z,6.65
2019-03-26T08:38:58.439Z,6.74
2019-03-26T08:41:26.849Z,6.79
2019-03-26T08:46:29.245Z,6.79
2019-03-26T08:48:57.644Z,6.84
2019-03-26T08:51:26.041Z,6.87
2019-03-26T08:53:54.453Z,6.93
2019-03-26T08:56:22.835Z,6.94
2019-03-26T08:58:51.251Z,6.92
2019-03-26T09:01:19.647Z,6.92
2019-03-26T09:03:48.045Z,6.94
2019-03-26T09:09:28.767Z,6.96
2019-03-26T09:11:57.190Z,6.96
2019-03-26T09:14:25.583Z,7.01
2019-03-26T09:16:53.977Z,7.07
2019-03-26T09:21:56.697Z,7.23
2019-03-26T09:24:25.112Z,7.32
2019-03-26T09:26:53.515Z,7.38
2019-03-26T09:29:34.547Z,7.45
2019-03-26T09:32:22.265Z,7.52
2019-03-26T09:34:50.692Z,7.58
2019-03-26T09:37:19.088Z,7.65
2019-03-26T09:39:47.572Z,7.70
2019-03-26T09:44:49.776Z,7.74
2019-03-26T09:55:21.477Z,8.06
2019-03-26T09:57:49.891Z,8.10
2019-03-26T10:00:37.648Z,8.20
2019-03-26T10:03:25.329Z,8.31
2019-03-26T10:05:53.728Z,8.42
2019-03-26T10:08:22.122Z,8.45
2019-03-26T10:13:24.115Z,8.52
2019-03-26T10:15:52.503Z,8.58
2019-03-26T10:20:55.516Z,8.78
2019-03-26T10:25:57.584Z,8.72
2019-03-26T10:31:12.804Z,8.58
2019-03-26T10:36:15.137Z,8.68
2019-03-26T10:41:18.795Z,8.73
2019-03-26T10:46:21.862Z,9.02
2019-03-26T10:51:23.776Z,8.96
2019-03-26T10:53:52.222Z,8.99
2019-03-26T10:56:20.610Z,9.12
2019-03-26T10:58:49.004Z,9.16
2019-03-26T11:01:17.489Z,9.17
2019-03-26T11:03:45.911Z,9.17
2019-03-26T11:06:14.281Z,8.99
2019-03-26T11:11:17.125Z,8.92
2019-03-26T11:13:45.535Z,8.91
2019-03-26T11:16:53.848Z,8.99
2019-03-26T11:19:22.292Z,9.09
2019-03-26T11:22:09.998Z,9.10
2019-03-26T11:24:38.522Z,9.05
2019-03-26T11:27:26.252Z,9.04
2019-03-26T11:32:28.697Z,9.32
2019-03-26T11:34:57.103Z,9.50
2019-03-26T11:37:25.484Z,9.69
2019-03-26T11:39:53.870Z,9.92
2019-03-26T11:42:22.300Z,10.12
2019-03-26T11:44:50.733Z,10.18
2019-03-26T11:47:19.140Z,10.17
2019-03-26T11:52:21.528Z,10.17
2019-03-26T11:54:49.953Z,10.05
2019-03-26T11:57:18.351Z,10.02
2019-03-26T11:59:46.759Z,10.04
2019-03-26T12:04:48.780Z,10.14
2019-03-26T12:07:17.181Z,10.10
2019-03-26T12:09:46.896Z,10.10
2019-03-26T12:12:15.754Z,10.17
2019-03-26T12:14:44.153Z,10.18
2019-03-26T12:17:31.912Z,10.07
2019-03-26T12:23:08.453Z,10.03
2019-03-26T12:25:36.853Z,10.10
2019-03-26T12:28:05.310Z,10.16
2019-03-26T12:31:13.745Z,10.18
2019-03-26T12:33:42.126Z,10.23
2019-03-26T12:36:10.526Z,10.22
2019-03-26T12:41:13.412Z,10.20
2019-03-26T12:46:15.577Z,10.37
2019-03-26T12:48:44.032Z,10.48
2019-03-26T12:51:31.768Z,10.61
2019-03-26T12:54:00.196Z,10.73
2019-03-26T12:56:28.594Z,10.94
2019-03-26T12:58:56.992Z,10.96
2019-03-26T13:01:25.472Z,10.99
2019-03-26T13:03:53.877Z,10.99
2019-03-26T13:06:24.404Z,10.98
2019-03-26T13:11:26.441Z,10.64
2019-03-26T13:13:54.838Z,10.62
2019-03-26T13:18:57.076Z,10.92
2019-03-26T13:23:59.339Z,10.92
2019-03-26T13:26:27.748Z,10.80
2019-03-26T13:28:56.185Z,10.75
2019-03-26T13:31:24.589Z,10.80
2019-03-26T13:33:52.987Z,10.92
2019-03-26T13:38:55.477Z,10.69
2019-03-26T13:41:23.901Z,10.64
2019-03-26T13:43:52.297Z,10.68
2019-03-26T13:46:20.696Z,10.72
2019-03-26T13:51:23.128Z,10.49
2019-03-26T13:53:51.549Z,10.25
2019-03-26T13:56:19.945Z,10.14
2019-03-26T13:58:48.346Z,10.05
2019-03-26T14:01:16.759Z,9.99
2019-03-26T14:04:04.404Z,10.04
2019-03-26T14:09:13.863Z,10.23
2019-03-26T14:14:15.864Z,10.14
2019-03-26T14:16:44.282Z,10.09
2019-03-26T14:19:12.685Z,10.08
2019-03-26T14:21:41.079Z,10.01
2019-03-26T14:27:02.614Z,9.89
2019-03-26T14:29:50.254Z,9.97
2019-03-26T14:32:18.665Z,10.09
2019-03-26T14:37:50.236Z,10.23
2019-03-26T14:40:54.783Z,10.37
2019-03-26T14:46:09.805Z,10.22
2019-03-26T14:48:38.230Z,10.22
2019-03-26T14:51:25.824Z,10.19
2019-03-26T14:53:54.279Z,10.24
2019-03-26T14:56:22.682Z,10.27
2019-03-26T14:58:51.086Z,10.21
2019-03-26T15:01:19.507Z,10.24
2019-03-26T15:03:47.909Z,10.32
2019-03-26T15:06:16.308Z,10.33
2019-03-26T15:09:24.732Z,10.39
2019-03-26T15:11:53.137Z,10.39
2019-03-26T15:14:21.553Z,10.47
2019-03-26T15:16:49.979Z,10.57
2019-03-26T15:19:18.386Z,10.55
2019-03-26T15:21:46.782Z,10.52
2019-03-26T15:24:15.241Z,10.42
2019-03-26T15:26:43.641Z,10.36
2019-03-26T15:29:31.192Z,10.35
2019-03-26T15:31:59.593Z,10.33
2019-03-26T15:34:47.381Z,10.27
2019-03-26T15:37:15.783Z,10.19
2019-03-26T15:40:03.426Z,10.05
2019-03-26T15:42:31.809Z,10.01
2019-03-26T15:45:00.398Z,9.96
2019-03-26T15:50:44.140Z,10.35
2019-03-26T15:53:52.575Z,10.53
2019-03-26T15:57:00.896Z,10.39
2019-03-26T16:02:03.299Z,10.17
2019-03-26T16:04:31.701Z,10.01
2019-03-26T16:07:00.125Z,9.94
2019-03-26T16:09:28.528Z,9.83
2019-03-26T16:11:56.932Z,9.66
2019-03-26T16:19:53.831Z,9.45
2019-03-26T16:22:22.273Z,9.43
2019-03-26T16:25:30.569Z,9.37
2019-03-26T16:28:18.310Z,9.28
2019-03-26T16:30:46.706Z,9.24
2019-03-26T16:33:15.108Z,9.28
2019-03-26T16:35:43.532Z,9.27
2019-03-26T16:38:11.920Z,9.25
2019-03-26T16:40:40.319Z,9.25
2019-03-26T16:43:08.732Z,9.20
2019-03-26T16:45:37.126Z,9.16
2019-03-26T16:48:05.543Z,9.15
2019-03-26T16:53:08.181Z,9.08
2019-03-26T16:55:56.037Z,9.08
2019-03-26T16:58:24.445Z,9.06
2019-03-26T17:00:52.839Z,9.01
2019-03-26T17:03:31.363Z,8.95
2019-03-26T17:05:51.382Z,8.91
2019-03-26T17:08:22.602Z,8.93
2019-03-26T17:13:24.523Z,8.82
2019-03-26T17:18:45.833Z,8.71
2019-03-26T17:21:14.307Z,8.63
2019-03-26T17:23:42.694Z,8.56
2019-03-26T17:31:33.149Z,8.40
2019-03-26T17:36:35.519Z,8.33
2019-03-26T17:39:23.433Z,8.32
2019-03-26T17:41:51.825Z,8.27
2019-03-26T17:44:20.215Z,8.23
2019-03-26T17:46:48.636Z,8.23
2019-03-26T17:49:17.032Z,8.23
2019-03-26T17:51:45.425Z,8.20
2019-03-26T17:54:33.206Z,8.18
2019-03-26T17:57:01.603Z,8.17
2019-03-26T17:59:29.994Z,8.14
2019-03-26T18:01:58.534Z,8.15
2019-03-26T18:04:46.229Z,8.13
2019-03-26T18:07:14.636Z,8.05
2019-03-26T18:09:43.027Z,7.97
2019-03-26T18:12:11.432Z,7.92
2019-03-26T18:17:13.663Z,7.89
2019-03-26T18:19:42.087Z,7.89
2019-03-26T18:22:10.475Z,7.86
2019-03-26T18:24:38.875Z,7.80
2019-03-26T18:29:41.299Z,7.71
2019-03-26T18:32:29.039Z,7.67
2019-03-26T18:34:57.439Z,7.68
2019-03-26T18:37:25.907Z,7.64
2019-03-26T18:39:54.314Z,7.60
2019-03-26T18:42:22.711Z,7.64
2019-03-26T18:44:51.099Z,7.66
2019-03-26T18:47:19.620Z,7.61
2019-03-26T18:49:48.017Z,7.55
2019-03-26T18:52:16.405Z,7.52
2019-03-26T18:54:44.817Z,7.54
2019-03-26T18:57:13.285Z,7.55
2019-03-26T18:59:41.676Z,7.51
2019-03-26T19:04:44.373Z,7.41
2019-03-26T19:09:46.719Z,7.42
2019-03-26T19:12:15.129Z,7.37
2019-03-26T19:14:43.529Z,7.33
2019-03-26T19:17:11.933Z,7.30
2019-03-26T19:22:14.035Z,7.22
2019-03-26T19:27:17.019Z,7.16
2019-03-26T19:29:45.441Z,7.17
2019-03-26T19:32:13.835Z,7.16
2019-03-26T19:34:42.261Z,7.17
2019-03-26T19:37:10.749Z,7.17
2019-03-26T19:39:39.149Z,7.16
2019-03-26T19:42:07.541Z,7.16
2019-03-26T19:44:35.969Z,7.15
2019-03-26T19:47:04.373Z,7.12
2019-03-26T19:49:32.773Z,7.05
2019-03-26T19:52:01.229Z,6.97
2019-03-26T19:54:29.640Z,6.93
2019-03-26T19:56:58.024Z,6.90
2019-03-26T20:02:01.134Z,6.97
2019-03-26T20:04:29.618Z,6.93
2019-03-26T20:06:58.013Z,6.86
2019-03-26T20:09:26.403Z,6.77
2019-03-26T20:14:29.307Z,6.67
2019-03-26T20:19:31.525Z,6.52
2019-03-26T20:21:59.948Z,6.45
2019-03-26T20:24:28.343Z,6.48
2019-03-26T20:26:56.814Z,6.49
2019-03-26T20:29:25.273Z,6.50
2019-03-26T20:31:53.688Z,6.48
2019-03-26T20:34:41.459Z,6.38
2019-03-26T20:37:09.871Z,6.27
2019-03-26T20:39:38.331Z,6.24
2019-03-26T20:44:40.330Z,6.29
2019-03-26T20:47:08.727Z,6.32
2019-03-26T20:49:37.148Z,6.34
2019-03-26T20:52:24.873Z,6.34
2019-03-26T20:54:53.301Z,6.34
2019-03-26T20:57:21.690Z,6.35
2019-03-26T21:00:09.320Z,6.35
2019-03-26T21:02:37.714Z,6.37
2019-03-26T21:05:46.387Z,6.40
2019-03-26T21:08:14.781Z,6.41
2019-03-26T21:10:43.177Z,6.40
2019-03-26T21:13:30.953Z,6.41
2019-03-26T21:15:59.411Z,6.42
2019-03-26T21:18:27.845Z,6.47
2019-03-26T21:20:56.265Z,6.52
2019-03-26T21:23:24.662Z,6.50
2019-03-26T21:25:53.061Z,6.47
2019-03-26T21:28:21.484Z,6.46
2019-03-26T21:30:49.919Z,6.46
2019-03-26T21:33:37.646Z,6.45
2019-03-26T21:36:06.036Z,6.45
2019-03-26T21:38:34.435Z,6.48
2019-03-26T21:43:36.821Z,6.49
2019-03-26T21:46:24.605Z,6.51
2019-03-26T21:48:53.000Z,6.54
2019-03-26T21:51:21.413Z,6.56
2019-03-26T21:53:49.841Z,6.57
2019-03-26T21:56:18.267Z,6.57
2019-03-26T21:58:46.654Z,6.58
2019-03-26T22:03:49.040Z,6.58
2019-03-26T22:06:17.461Z,6.55
2019-03-26T22:08:45.844Z,6.59
2019-03-26T22:11:14.251Z,6.63
2019-03-26T22:13:42.707Z,6.69
2019-03-26T22:16:11.110Z,6.72
2019-03-26T22:18:39.507Z,6.69
2019-03-26T22:21:07.931Z,6.68
2019-03-26T22:23:36.325Z,6.70
2019-03-26T22:26:04.714Z,6.70
2019-03-26T22:31:06.730Z,6.76
2019-03-26T22:36:08.807Z,6.76
2019-03-26T22:38:37.275Z,6.76
2019-03-26T22:41:05.631Z,6.73
2019-03-26T22:43:34.025Z,6.75
2019-03-26T22:48:36.751Z,6.80
2019-03-26T22:53:39.616Z,6.88
2019-03-26T22:56:47.955Z,6.90
2019-03-26T22:59:16.351Z,6.92
2019-03-26T23:02:04.231Z,6.93
2019-03-26T23:04:32.633Z,6.97
2019-03-26T23:07:01.024Z,6.96
2019-03-26T23:12:03.639Z,6.89
2019-03-26T23:17:45.524Z,6.82
2019-03-26T23:20:53.914Z,6.78
2019-03-26T23:23:22.298Z,6.77
2019-03-26T23:29:04.366Z,6.66
2019-03-26T23:31:32.817Z,6.64
2019-03-26T23:34:01.238Z,6.62
2019-03-26T23:36:29.705Z,6.62
2019-03-26T23:38:58.169Z,6.60
2019-03-26T23:41:26.588Z,6.59
2019-03-26T23:46:50.888Z,6.65
2019-03-26T23:49:19.319Z,6.67
2019-03-26T23:51:47.709Z,6.65
2019-03-26T23:54:16.105Z,6.60
